createdAt,value
2022-11-10T00:00:20.581Z,84.48
2022-11-10T00:01:20.573Z,84.48
2022-11-10T00:02:20.554Z,84.48
2022-11-10T00:03:20.930Z,84.38
2022-11-10T00:04:20.586Z,84.48
2022-11-10T00:05:20.517Z,84.38
2022-11-10T00:06:20.514Z,84.34
2022-11-10T00:07:20.500Z,84.48
2022-11-10T00:08:20.500Z,84.38
2022-11-10T00:09:20.475Z,84.38
2022-11-10T00:10:20.453Z,84.38
2022-11-10T00:11:20.438Z,84.38
2022-11-10T00:12:20.424Z,84.48
2022-11-10T00:13:20.722Z,84.38
2022-11-10T00:14:20.399Z,84.48
2022-11-10T00:15:20.381Z,84.38
2022-11-10T00:16:20.364Z,84.48
2022-11-10T00:17:20.352Z,84.38
2022-11-10T00:18:20.335Z,84.44
2022-11-10T00:19:20.337Z,84.48
2022-11-10T00:20:20.318Z,84.34
2022-11-10T00:21:20.298Z,84.38
2022-11-10T00:22:23.953Z,84.38
2022-11-10T00:23:20.665Z,84.48
2022-11-10T00:24:20.281Z,84.48
2022-11-10T00:25:20.247Z,84.38
2022-11-10T00:26:20.230Z,84.52
2022-11-10T00:27:20.214Z,84.48
2022-11-10T00:28:20.204Z,84.48
2022-11-10T00:29:20.185Z,84.48
2022-11-10T00:30:20.533Z,84.48
2022-11-10T00:31:20.163Z,84.48
2022-11-10T00:32:20.150Z,84.48
2022-11-10T00:33:20.483Z,84.48
2022-11-10T00:34:20.123Z,84.48
2022-11-10T00:35:20.120Z,84.48
2022-11-10T00:36:20.091Z,84.52
2022-11-10T00:37:20.081Z,84.52
2022-11-10T00:38:20.072Z,84.52
2022-11-10T00:39:20.051Z,84.52
2022-11-10T00:40:20.061Z,84.52
2022-11-10T00:41:20.023Z,84.52
2022-11-10T00:42:20.013Z,84.63
2022-11-10T00:43:25.282Z,84.63
2022-11-10T00:44:21.008Z,84.63
2022-11-10T00:45:19.970Z,84.52
2022-11-10T00:46:19.959Z,84.63
2022-11-10T00:47:19.939Z,84.63
2022-11-10T00:48:19.932Z,84.66
2022-11-10T00:49:19.917Z,84.66
2022-11-10T00:50:19.909Z,84.63
2022-11-10T00:51:19.884Z,84.77
2022-11-10T00:52:19.873Z,84.77
2022-11-10T00:53:20.222Z,84.72
2022-11-10T00:54:19.852Z,84.72
2022-11-10T00:55:19.838Z,84.72
2022-11-10T00:56:19.842Z,84.72
2022-11-10T00:57:19.802Z,84.63
2022-11-10T00:58:19.799Z,84.72
2022-11-10T00:59:19.774Z,84.66
2022-11-10T01:00:19.769Z,84.72
2022-11-10T01:01:19.849Z,84.63
2022-11-10T01:02:19.735Z,84.63
2022-11-10T01:03:20.117Z,84.72
2022-11-10T01:04:19.714Z,84.77
2022-11-10T01:05:19.696Z,84.72
2022-11-10T01:06:19.689Z,84.77
2022-11-10T01:07:19.667Z,84.77
2022-11-10T01:08:19.653Z,84.77
2022-11-10T01:09:19.645Z,84.77
2022-11-10T01:10:19.630Z,84.77
2022-11-10T01:11:19.614Z,84.77
2022-11-10T01:12:19.623Z,84.80
2022-11-10T01:13:19.916Z,84.77
2022-11-10T01:14:19.578Z,84.80
2022-11-10T01:15:23.042Z,84.80
2022-11-10T01:16:20.568Z,84.77
2022-11-10T01:17:19.525Z,84.80
2022-11-10T01:18:19.515Z,84.91
2022-11-10T01:19:19.503Z,84.91
2022-11-10T01:20:19.491Z,84.91
2022-11-10T01:21:19.479Z,84.91
2022-11-10T01:22:19.466Z,84.91
2022-11-10T01:23:19.859Z,84.95
2022-11-10T01:24:19.438Z,85.05
2022-11-10T01:25:19.420Z,85.05
2022-11-10T01:26:19.412Z,85.05
2022-11-10T01:27:19.394Z,85.05
2022-11-10T01:28:19.399Z,85.05
2022-11-10T01:29:19.369Z,85.15
2022-11-10T01:30:19.356Z,85.15
2022-11-10T01:31:19.343Z,85.15
2022-11-10T01:32:19.328Z,85.05
2022-11-10T01:33:19.608Z,85.19
2022-11-10T01:34:19.294Z,85.15
2022-11-10T01:35:19.301Z,85.25
2022-11-10T01:36:19.273Z,85.15
2022-11-10T01:37:19.256Z,85.15
2022-11-10T01:38:19.252Z,85.30
2022-11-10T01:39:19.230Z,85.19
2022-11-10T01:40:19.231Z,85.25
2022-11-10T01:41:19.201Z,85.30
2022-11-10T01:42:19.184Z,85.25
2022-11-10T01:43:19.592Z,85.19
2022-11-10T01:44:19.188Z,85.30
2022-11-10T01:45:19.149Z,85.39
2022-11-10T01:46:19.128Z,85.33
2022-11-10T01:47:19.118Z,85.30
2022-11-10T01:48:19.108Z,85.44
2022-11-10T01:49:19.093Z,85.30
2022-11-10T01:50:19.081Z,85.33
2022-11-10T01:51:19.069Z,85.33
2022-11-10T01:52:19.054Z,85.54
2022-11-10T01:53:19.273Z,85.54
2022-11-10T01:54:19.027Z,85.58
2022-11-10T01:55:19.014Z,85.54
2022-11-10T01:56:19.003Z,85.58
2022-11-10T01:57:18.985Z,85.58
2022-11-10T01:58:18.967Z,85.58
2022-11-10T01:59:18.956Z,85.68
2022-11-10T02:00:18.965Z,85.64
2022-11-10T02:01:19.001Z,85.64
2022-11-10T02:02:18.915Z,85.54
2022-11-10T02:03:19.226Z,85.58
2022-11-10T02:04:18.898Z,85.64
2022-11-10T02:05:18.873Z,85.64
2022-11-10T02:06:18.863Z,85.68
2022-11-10T02:07:18.843Z,85.64
2022-11-10T02:08:18.832Z,85.68
2022-11-10T02:09:18.818Z,85.64
2022-11-10T02:10:18.805Z,85.58
2022-11-10T02:11:18.786Z,85.68
2022-11-10T02:12:18.780Z,85.68
2022-11-10T02:13:19.039Z,85.64
2022-11-10T02:14:18.752Z,85.68
2022-11-10T02:15:18.740Z,85.68
2022-11-10T02:16:18.749Z,85.58
2022-11-10T02:17:18.711Z,85.68
2022-11-10T02:18:18.701Z,85.68
2022-11-10T02:19:18.684Z,85.68
2022-11-10T02:20:18.675Z,85.68
2022-11-10T02:21:18.659Z,85.68
2022-11-10T02:22:18.650Z,85.78
2022-11-10T02:23:18.987Z,85.72
2022-11-10T02:24:18.614Z,85.68
2022-11-10T02:25:18.599Z,85.78
2022-11-10T02:26:18.594Z,85.82
2022-11-10T02:27:18.576Z,85.78
2022-11-10T02:28:18.566Z,85.82
2022-11-10T02:29:18.550Z,85.78
2022-11-10T02:30:18.534Z,85.82
2022-11-10T02:31:18.526Z,85.82
2022-11-10T02:32:18.536Z,85.86
2022-11-10T02:33:18.736Z,85.93
2022-11-10T02:34:18.482Z,85.93
2022-11-10T02:35:18.468Z,85.82
2022-11-10T02:36:18.457Z,85.82
2022-11-10T02:37:18.438Z,85.82
2022-11-10T02:38:18.432Z,85.97
2022-11-10T02:39:18.408Z,85.97
2022-11-10T02:40:18.605Z,85.97
2022-11-10T02:41:18.382Z,86.03
2022-11-10T02:42:18.378Z,86.07
2022-11-10T02:43:18.376Z,86.11
2022-11-10T02:44:18.349Z,86.07
2022-11-10T02:45:18.328Z,86.07
2022-11-10T02:46:18.320Z,86.00
2022-11-10T02:47:18.304Z,86.11
2022-11-10T02:48:18.319Z,86.21
2022-11-10T02:49:18.283Z,86.11
2022-11-10T02:50:18.268Z,86.21
2022-11-10T02:51:18.251Z,86.21
2022-11-10T02:52:18.240Z,86.21
2022-11-10T02:53:18.265Z,86.32
2022-11-10T02:54:18.209Z,86.27
2022-11-10T02:55:18.194Z,86.17
2022-11-10T02:56:18.184Z,86.32
2022-11-10T02:57:18.168Z,86.21
2022-11-10T02:58:18.160Z,86.25
2022-11-10T02:59:18.138Z,86.21
2022-11-10T03:00:18.129Z,86.32
2022-11-10T03:01:18.232Z,86.21
2022-11-10T03:02:18.100Z,86.32
2022-11-10T03:03:18.087Z,86.25
2022-11-10T03:04:18.097Z,86.25
2022-11-10T03:05:18.055Z,86.32
2022-11-10T03:06:18.051Z,86.25
2022-11-10T03:07:18.026Z,86.35
2022-11-10T03:08:18.019Z,86.25
2022-11-10T03:09:18.009Z,86.35
2022-11-10T03:10:17.990Z,86.50
2022-11-10T03:11:17.979Z,86.40
2022-11-10T03:12:17.968Z,86.46
2022-11-10T03:13:17.948Z,86.46
2022-11-10T03:14:17.945Z,86.50
2022-11-10T03:15:17.924Z,86.46
2022-11-10T03:16:17.911Z,86.50
2022-11-10T03:17:17.896Z,86.50
2022-11-10T03:18:17.886Z,86.50
2022-11-10T03:19:17.870Z,86.60
2022-11-10T03:20:17.873Z,86.60
2022-11-10T03:21:17.840Z,86.60
2022-11-10T03:22:17.832Z,86.60
2022-11-10T03:23:17.817Z,86.60
2022-11-10T03:24:17.801Z,86.64
2022-11-10T03:25:17.790Z,86.60
2022-11-10T03:26:17.774Z,86.70
2022-11-10T03:27:17.762Z,86.70
2022-11-10T03:28:17.742Z,86.64
2022-11-10T03:29:17.735Z,86.70
2022-11-10T03:30:17.716Z,86.60
2022-11-10T03:31:17.713Z,86.64
2022-11-10T03:32:17.693Z,86.60
2022-11-10T03:33:17.685Z,86.70
2022-11-10T03:34:17.658Z,86.60
2022-11-10T03:35:17.655Z,86.74
2022-11-10T03:36:17.659Z,86.74
2022-11-10T03:37:17.626Z,86.64
2022-11-10T03:38:17.610Z,86.70
2022-11-10T03:39:17.594Z,86.64
2022-11-10T03:40:17.583Z,86.74
2022-11-10T03:41:19.662Z,86.70
2022-11-10T03:42:17.559Z,86.74
2022-11-10T03:43:17.550Z,86.74
2022-11-10T03:44:17.521Z,86.74
2022-11-10T03:45:17.768Z,86.74
2022-11-10T03:46:17.495Z,86.74
2022-11-10T03:47:17.494Z,86.74
2022-11-10T03:48:17.468Z,86.85
2022-11-10T03:49:17.470Z,86.85
2022-11-10T03:50:17.446Z,86.85
2022-11-10T03:51:17.435Z,86.85
2022-11-10T03:52:17.435Z,86.74
2022-11-10T03:53:17.402Z,86.85
2022-11-10T03:54:17.388Z,86.80
2022-11-10T03:55:17.379Z,86.74
2022-11-10T03:56:17.360Z,86.80
2022-11-10T03:57:17.357Z,86.74
2022-11-10T03:58:17.331Z,86.74
2022-11-10T03:59:17.325Z,86.80
2022-11-10T04:00:17.319Z,86.70
2022-11-10T04:01:17.396Z,86.70
2022-11-10T04:02:17.281Z,86.70
2022-11-10T04:03:17.275Z,86.70
2022-11-10T04:04:17.256Z,86.60
2022-11-10T04:05:17.243Z,86.56
2022-11-10T04:06:17.231Z,86.56
2022-11-10T04:07:17.216Z,86.56
2022-11-10T04:08:17.223Z,86.60
2022-11-10T04:09:17.185Z,86.46
2022-11-10T04:10:17.178Z,86.46
2022-11-10T04:11:17.161Z,86.46
2022-11-10T04:12:20.781Z,86.46
2022-11-10T04:13:18.268Z,86.46
2022-11-10T04:14:17.112Z,86.46
2022-11-10T04:15:17.110Z,86.46
2022-11-10T04:16:17.092Z,86.46
2022-11-10T04:17:17.081Z,86.46
2022-11-10T04:18:17.066Z,86.46
2022-11-10T04:19:17.047Z,86.46
2022-11-10T04:20:17.037Z,86.46
2022-11-10T04:21:17.033Z,86.46
2022-11-10T04:22:17.008Z,86.46
2022-11-10T04:23:16.996Z,86.35
2022-11-10T04:24:17.004Z,86.35
2022-11-10T04:25:16.973Z,86.32
2022-11-10T04:26:16.957Z,86.21
2022-11-10T04:27:16.944Z,86.35
2022-11-10T04:28:16.929Z,86.35
2022-11-10T04:29:16.915Z,86.32
2022-11-10T04:30:16.898Z,86.35
2022-11-10T04:31:16.888Z,86.32
2022-11-10T04:32:16.868Z,86.32
2022-11-10T04:33:16.867Z,86.35
2022-11-10T04:34:16.843Z,86.35
2022-11-10T04:35:16.836Z,86.21
2022-11-10T04:36:16.821Z,86.32
2022-11-10T04:37:16.811Z,86.35
2022-11-10T04:38:16.795Z,86.32
2022-11-10T04:39:16.790Z,86.32
2022-11-10T04:40:16.783Z,86.35
2022-11-10T04:41:16.768Z,86.25
2022-11-10T04:42:16.733Z,86.35
2022-11-10T04:43:16.725Z,86.35
2022-11-10T04:44:16.711Z,86.35
2022-11-10T04:45:16.703Z,86.21
2022-11-10T04:46:16.685Z,86.25
2022-11-10T04:47:16.667Z,86.35
2022-11-10T04:48:16.663Z,86.21
2022-11-10T04:49:16.639Z,86.25
2022-11-10T04:50:16.639Z,86.25
2022-11-10T04:51:16.670Z,86.25
2022-11-10T04:52:16.605Z,86.25
2022-11-10T04:53:16.585Z,86.25
2022-11-10T04:54:16.578Z,86.25
2022-11-10T04:55:16.557Z,86.35
2022-11-10T04:56:16.581Z,86.35
2022-11-10T04:57:16.539Z,86.35
2022-11-10T04:58:16.521Z,86.25
2022-11-10T04:59:16.503Z,86.35
2022-11-10T05:00:16.499Z,86.29
2022-11-10T05:01:16.489Z,86.40
2022-11-10T05:02:16.468Z,86.35
2022-11-10T05:03:16.457Z,86.46
2022-11-10T05:04:16.443Z,86.46
2022-11-10T05:05:16.422Z,86.42
2022-11-10T05:06:16.409Z,86.46
2022-11-10T05:07:16.406Z,86.35
2022-11-10T05:08:16.385Z,86.35
2022-11-10T05:09:16.372Z,86.35
2022-11-10T05:10:16.363Z,86.35
2022-11-10T05:11:16.366Z,86.25
2022-11-10T05:12:22.118Z,86.35
2022-11-10T05:13:17.333Z,86.35
2022-11-10T05:14:16.307Z,86.25
2022-11-10T05:15:16.287Z,86.32
2022-11-10T05:16:16.284Z,86.32
2022-11-10T05:17:16.259Z,86.25
2022-11-10T05:18:16.252Z,86.25
2022-11-10T05:19:16.232Z,86.25
2022-11-10T05:20:16.224Z,86.25
2022-11-10T05:21:16.208Z,86.25
2022-11-10T05:22:16.194Z,86.40
2022-11-10T05:23:16.181Z,86.29
2022-11-10T05:24:16.170Z,86.43
2022-11-10T05:25:16.153Z,86.50
2022-11-10T05:26:16.143Z,86.50
2022-11-10T05:27:16.121Z,86.43
2022-11-10T05:28:16.139Z,86.50
2022-11-10T05:29:16.098Z,86.54
2022-11-10T05:30:16.088Z,86.40
2022-11-10T05:31:16.065Z,86.50
2022-11-10T05:32:16.065Z,86.50
2022-11-10T05:33:16.037Z,86.54
2022-11-10T05:34:16.035Z,86.50
2022-11-10T05:35:16.021Z,86.50
2022-11-10T05:36:16.001Z,86.54
2022-11-10T05:37:15.999Z,86.64
2022-11-10T05:38:15.974Z,86.64
2022-11-10T05:39:15.967Z,86.60
2022-11-10T05:40:15.956Z,86.60
2022-11-10T05:41:15.935Z,86.64
2022-11-10T05:42:15.923Z,86.60
2022-11-10T05:43:15.912Z,86.50
2022-11-10T05:44:15.934Z,86.50
2022-11-10T05:45:15.880Z,86.54
2022-11-10T05:46:15.871Z,86.50
2022-11-10T05:47:15.860Z,86.54
2022-11-10T05:48:15.840Z,86.64
2022-11-10T05:49:15.819Z,86.60
2022-11-10T05:50:15.814Z,86.60
2022-11-10T05:51:15.805Z,86.60
2022-11-10T05:52:15.785Z,86.60
2022-11-10T05:53:15.770Z,86.50
2022-11-10T05:54:15.761Z,86.54
2022-11-10T05:55:15.744Z,86.50
2022-11-10T05:56:15.731Z,86.50
2022-11-10T05:57:15.729Z,86.54
2022-11-10T05:58:15.702Z,86.50
2022-11-10T05:59:15.694Z,86.54
2022-11-10T06:00:15.736Z,86.54
2022-11-10T06:01:15.662Z,86.54
2022-11-10T06:02:15.646Z,86.50
2022-11-10T06:03:15.692Z,86.50
2022-11-10T06:04:15.619Z,86.60
2022-11-10T06:05:15.610Z,86.50
2022-11-10T06:06:15.592Z,86.60
2022-11-10T06:07:15.689Z,86.50
2022-11-10T06:08:15.573Z,86.60
2022-11-10T06:09:15.553Z,86.50
2022-11-10T06:10:15.541Z,86.60
2022-11-10T06:11:15.527Z,86.60
2022-11-10T06:12:15.515Z,86.54
2022-11-10T06:13:15.493Z,86.54
2022-11-10T06:14:15.512Z,86.54
2022-11-10T06:15:15.464Z,86.47
2022-11-10T06:16:15.481Z,86.68
2022-11-10T06:17:15.437Z,86.68
2022-11-10T06:18:15.432Z,86.68
2022-11-10T06:19:15.418Z,86.79
2022-11-10T06:20:15.405Z,86.79
2022-11-10T06:21:15.388Z,86.79
2022-11-10T06:22:15.378Z,86.74
2022-11-10T06:23:15.359Z,86.68
2022-11-10T06:24:15.351Z,86.74
2022-11-10T06:25:15.329Z,86.68
2022-11-10T06:26:15.323Z,86.79
2022-11-10T06:27:15.305Z,86.79
2022-11-10T06:28:15.299Z,86.79
2022-11-10T06:29:15.274Z,86.79
2022-11-10T06:30:15.273Z,86.72
2022-11-10T06:31:15.252Z,86.79
2022-11-10T06:32:15.273Z,86.88
2022-11-10T06:33:15.229Z,86.79
2022-11-10T06:34:15.210Z,86.79
2022-11-10T06:35:15.201Z,86.88
2022-11-10T06:36:15.185Z,86.79
2022-11-10T06:37:15.171Z,86.79
2022-11-10T06:38:15.156Z,86.79
2022-11-10T06:39:15.141Z,86.68
2022-11-10T06:40:15.133Z,86.68
2022-11-10T06:41:15.111Z,86.72
2022-11-10T06:42:15.105Z,86.72
2022-11-10T06:43:15.086Z,86.82
2022-11-10T06:44:15.077Z,86.93
2022-11-10T06:45:15.064Z,86.88
2022-11-10T06:46:15.052Z,86.82
2022-11-10T06:47:15.028Z,86.93
2022-11-10T06:48:15.045Z,86.93
2022-11-10T06:49:15.008Z,86.93
2022-11-10T06:50:14.999Z,86.93
2022-11-10T06:51:14.977Z,86.93
2022-11-10T06:52:14.966Z,86.99
2022-11-10T06:53:14.947Z,86.99
2022-11-10T06:54:14.939Z,86.99
2022-11-10T06:55:14.924Z,87.03
2022-11-10T06:56:14.912Z,86.79
2022-11-10T06:57:14.899Z,86.93
2022-11-10T06:58:14.894Z,86.93
2022-11-10T06:59:14.870Z,86.93
2022-11-10T07:00:14.859Z,86.88
2022-11-10T07:01:18.686Z,87.03
2022-11-10T07:02:15.858Z,86.93
2022-11-10T07:03:14.811Z,87.03
2022-11-10T07:04:19.733Z,86.99
2022-11-10T07:05:14.782Z,86.99
2022-11-10T07:06:14.771Z,86.88
2022-11-10T07:07:14.910Z,86.88
2022-11-10T07:08:14.752Z,86.88
2022-11-10T07:09:14.733Z,86.74
2022-11-10T07:10:14.722Z,86.74
2022-11-10T07:11:14.708Z,86.74
2022-11-10T07:12:14.698Z,86.74
2022-11-10T07:13:14.684Z,86.74
2022-11-10T07:14:14.671Z,86.64
2022-11-10T07:15:14.656Z,86.54
2022-11-10T07:16:14.646Z,86.54
2022-11-10T07:17:14.632Z,86.54
2022-11-10T07:18:14.616Z,86.54
2022-11-10T07:19:14.596Z,86.50
2022-11-10T07:20:14.603Z,86.43
2022-11-10T07:21:14.565Z,86.37
2022-11-10T07:22:14.562Z,86.47
2022-11-10T07:23:14.544Z,86.58
2022-11-10T07:24:14.563Z,86.72
2022-11-10T07:25:14.516Z,86.68
2022-11-10T07:26:14.504Z,86.72
2022-11-10T07:27:14.483Z,86.58
2022-11-10T07:28:14.473Z,86.68
2022-11-10T07:29:14.468Z,86.68
2022-11-10T07:30:14.449Z,86.61
2022-11-10T07:31:14.431Z,86.68
2022-11-10T07:32:14.426Z,86.72
2022-11-10T07:33:14.400Z,86.68
2022-11-10T07:34:14.393Z,86.74
2022-11-10T07:35:14.379Z,86.64
2022-11-10T07:36:14.388Z,86.64
2022-11-10T07:37:14.354Z,86.54
2022-11-10T07:38:14.345Z,86.33
2022-11-10T07:39:14.325Z,86.43
2022-11-10T07:40:14.316Z,86.54
2022-11-10T07:41:14.304Z,86.50
2022-11-10T07:42:14.288Z,86.40
2022-11-10T07:43:14.267Z,86.40
2022-11-10T07:44:14.261Z,86.29
2022-11-10T07:45:14.243Z,86.29
2022-11-10T07:46:14.229Z,86.29
2022-11-10T07:47:14.215Z,86.15
2022-11-10T07:48:14.203Z,85.98
2022-11-10T07:49:14.191Z,86.13
2022-11-10T07:50:14.176Z,86.13
2022-11-10T07:51:14.162Z,86.33
2022-11-10T07:52:14.177Z,86.23
2022-11-10T07:53:14.134Z,86.33
2022-11-10T07:54:14.130Z,86.19
2022-11-10T07:55:14.108Z,86.19
2022-11-10T07:56:14.097Z,86.23
2022-11-10T07:57:14.081Z,86.19
2022-11-10T07:58:14.069Z,86.02
2022-11-10T07:59:14.061Z,86.13
2022-11-10T08:00:14.043Z,86.23
2022-11-10T08:01:14.063Z,86.16
2022-11-10T08:02:14.070Z,86.27
2022-11-10T08:03:13.996Z,86.27
2022-11-10T08:04:13.993Z,86.37
2022-11-10T08:05:13.966Z,86.37
2022-11-10T08:06:14.022Z,86.23
2022-11-10T08:07:14.082Z,86.33
2022-11-10T08:08:13.968Z,86.23
2022-11-10T08:09:13.918Z,86.27
2022-11-10T08:10:13.907Z,86.27
2022-11-10T08:11:13.893Z,86.23
2022-11-10T08:12:13.877Z,86.23
2022-11-10T08:13:13.865Z,86.23
2022-11-10T08:14:13.855Z,86.08
2022-11-10T08:15:13.839Z,86.13
2022-11-10T08:16:13.829Z,86.13
2022-11-10T08:17:13.811Z,86.13
2022-11-10T08:18:13.808Z,86.13
2022-11-10T08:19:13.788Z,86.13
2022-11-10T08:20:13.774Z,86.13
2022-11-10T08:21:13.758Z,86.02
2022-11-10T08:22:13.746Z,85.98
2022-11-10T08:23:13.724Z,86.13
2022-11-10T08:24:13.733Z,85.92
2022-11-10T08:25:13.698Z,85.98
2022-11-10T08:26:13.687Z,85.88
2022-11-10T08:27:13.678Z,85.78
2022-11-10T08:28:13.666Z,85.88
2022-11-10T08:29:13.648Z,85.88
2022-11-10T08:30:13.637Z,85.88
2022-11-10T08:31:13.616Z,85.88
2022-11-10T08:32:13.609Z,85.78
2022-11-10T08:33:13.589Z,85.74
2022-11-10T08:34:13.584Z,85.74
2022-11-10T08:35:13.561Z,85.63
2022-11-10T08:36:13.552Z,85.60
2022-11-10T08:37:13.535Z,85.49
2022-11-10T08:38:13.528Z,85.28
2022-11-10T08:39:24.902Z,85.28
2022-11-10T08:40:14.546Z,85.28
2022-11-10T08:41:13.486Z,85.28
2022-11-10T08:42:13.475Z,85.18
2022-11-10T08:43:13.461Z,85.39
2022-11-10T08:44:15.548Z,85.35
2022-11-10T08:45:14.465Z,85.14
2022-11-10T08:46:13.423Z,85.04
2022-11-10T08:47:13.408Z,84.94
2022-11-10T08:48:13.389Z,84.90
2022-11-10T08:49:13.371Z,84.80
2022-11-10T08:50:13.358Z,84.76
2022-11-10T08:51:13.353Z,84.52
2022-11-10T08:52:13.332Z,84.37
2022-11-10T08:53:13.316Z,84.31
2022-11-10T08:54:13.310Z,84.31
2022-11-10T08:55:13.300Z,84.55
2022-11-10T08:56:13.305Z,84.66
2022-11-10T08:57:13.267Z,84.66
2022-11-10T08:58:13.260Z,84.45
2022-11-10T08:59:13.246Z,84.41
2022-11-10T09:00:13.228Z,84.27
2022-11-10T09:01:13.213Z,84.12
2022-11-10T09:02:13.201Z,84.33
2022-11-10T09:03:13.193Z,84.12
2022-11-10T09:04:13.196Z,84.03
2022-11-10T09:05:13.160Z,83.98
2022-11-10T09:06:13.140Z,84.19
2022-11-10T09:07:13.229Z,84.29
2022-11-10T09:08:13.109Z,84.39
2022-11-10T09:09:13.109Z,84.15
2022-11-10T09:10:13.088Z,84.15
2022-11-10T09:11:13.078Z,84.36
2022-11-10T09:12:13.082Z,84.25
2022-11-10T09:13:13.055Z,84.46
2022-11-10T09:14:13.032Z,84.42
2022-11-10T09:15:13.022Z,84.66
2022-11-10T09:16:13.004Z,85.48
2022-11-10T09:17:13.009Z,85.14
2022-11-10T09:18:12.976Z,85.79
2022-11-10T09:19:18.451Z,85.34
2022-11-10T09:20:14.045Z,85.44
2022-11-10T09:21:12.943Z,85.03
2022-11-10T09:22:12.931Z,85.03
2022-11-10T09:23:12.918Z,84.58
2022-11-10T09:24:12.904Z,85.75
2022-11-10T09:25:12.906Z,86.30
2022-11-10T09:26:12.869Z,85.79
2022-11-10T09:27:12.858Z,85.38
2022-11-10T09:28:12.868Z,85.38
2022-11-10T09:29:12.833Z,85.38
2022-11-10T09:30:17.436Z,85.17
2022-11-10T09:31:12.804Z,85.11
2022-11-10T09:32:12.800Z,85.01
2022-11-10T09:33:12.784Z,85.01
2022-11-10T09:34:12.757Z,84.91
2022-11-10T09:35:12.754Z,85.01
2022-11-10T09:36:12.739Z,85.07
2022-11-10T09:37:12.727Z,85.22
2022-11-10T09:38:12.712Z,85.31
2022-11-10T09:39:12.692Z,85.15
2022-11-10T09:40:13.124Z,85.11
2022-11-10T09:41:12.668Z,84.91
2022-11-10T09:42:12.653Z,84.91
2022-11-10T09:43:12.642Z,84.77
2022-11-10T09:44:12.645Z,84.77
2022-11-10T09:45:12.615Z,85.55
2022-11-10T09:46:12.590Z,85.07
2022-11-10T09:47:19.068Z,85.07
2022-11-10T09:48:13.588Z,85.07
2022-11-10T09:49:12.562Z,85.07
2022-11-10T09:50:12.539Z,85.48
2022-11-10T09:51:12.526Z,85.22
2022-11-10T09:52:12.521Z,85.11
2022-11-10T09:53:12.499Z,85.01
2022-11-10T09:54:12.489Z,85.01
2022-11-10T09:55:12.473Z,84.87
2022-11-10T09:56:12.473Z,84.91
2022-11-10T09:57:12.452Z,84.91
2022-11-10T09:58:12.436Z,84.91
2022-11-10T09:59:12.418Z,84.87
2022-11-10T10:00:12.431Z,84.87
2022-11-10T10:01:12.447Z,84.77
2022-11-10T10:02:12.379Z,84.87
2022-11-10T10:03:12.367Z,84.91
2022-11-10T10:04:12.346Z,84.91
2022-11-10T10:05:12.339Z,84.91
2022-11-10T10:06:12.325Z,84.80
2022-11-10T10:07:12.345Z,84.80
2022-11-10T10:08:12.298Z,84.70
2022-11-10T10:09:12.282Z,84.66
2022-11-10T10:10:17.171Z,84.66
2022-11-10T10:11:12.255Z,84.56
2022-11-10T10:12:12.244Z,84.56
2022-11-10T10:13:12.228Z,84.87
2022-11-10T10:14:12.216Z,84.56
2022-11-10T10:15:12.203Z,84.56
2022-11-10T10:16:12.209Z,84.56
2022-11-10T10:17:12.179Z,84.46
2022-11-10T10:18:12.158Z,84.56
2022-11-10T10:19:12.151Z,84.42
2022-11-10T10:20:12.138Z,84.42
2022-11-10T10:21:12.218Z,84.31
2022-11-10T10:22:12.103Z,84.28
2022-11-10T10:23:12.095Z,84.17
2022-11-10T10:24:16.584Z,83.93
2022-11-10T10:25:13.088Z,83.85
2022-11-10T10:26:12.052Z,82.96
2022-11-10T10:27:12.042Z,82.47
2022-11-10T10:28:12.022Z,82.13
2022-11-10T10:29:12.014Z,82.27
2022-11-10T10:30:11.992Z,82.82
2022-11-10T10:31:11.985Z,83.47
2022-11-10T10:32:11.988Z,84.01
2022-11-10T10:33:11.956Z,84.67
2022-11-10T10:34:11.936Z,84.67
2022-11-10T10:35:11.928Z,84.61
2022-11-10T10:36:11.915Z,84.81
2022-11-10T10:37:11.900Z,84.91
2022-11-10T10:38:11.888Z,84.81
2022-11-10T10:39:11.874Z,84.71
2022-11-10T10:40:11.854Z,84.61
2022-11-10T10:41:11.853Z,84.47
2022-11-10T10:42:11.831Z,84.30
2022-11-10T10:43:11.824Z,84.20
2022-11-10T10:44:11.802Z,84.06
2022-11-10T10:45:11.875Z,84.06
2022-11-10T10:46:11.782Z,83.92
2022-11-10T10:47:11.764Z,83.78
2022-11-10T10:48:11.774Z,84.51
2022-11-10T10:49:27.853Z,85.39
2022-11-10T10:50:12.748Z,90.48
2022-11-10T10:51:11.716Z,90.44
2022-11-10T10:52:11.699Z,88.20
2022-11-10T10:53:11.687Z,88.34
2022-11-10T10:54:11.670Z,90.01
2022-11-10T10:55:11.661Z,90.42
2022-11-10T10:56:11.640Z,88.43
2022-11-10T10:57:11.631Z,87.06
2022-11-10T10:58:11.608Z,88.28
2022-11-10T10:59:11.609Z,87.43
2022-11-10T11:00:11.580Z,89.00
2022-11-10T11:01:11.621Z,89.61
2022-11-10T11:02:11.557Z,90.59
2022-11-10T11:03:11.554Z,92.52
2022-11-10T11:04:11.549Z,90.95
2022-11-10T11:05:11.523Z,90.05
2022-11-10T11:06:11.500Z,92.71
2022-11-10T11:07:11.516Z,96.84
2022-11-10T11:08:11.473Z,87.99
2022-11-10T11:09:11.465Z,97.98
2022-11-10T11:10:11.446Z,95.86
2022-11-10T11:11:11.446Z,96.22
2022-11-10T11:12:11.424Z,97.28
2022-11-10T11:13:11.418Z,96.51
2022-11-10T11:14:11.398Z,94.31
2022-11-10T11:15:11.391Z,95.57
2022-11-10T11:16:11.373Z,96.08
2022-11-10T11:17:11.419Z,96.95
2022-11-10T11:18:11.343Z,94.73
2022-11-10T11:19:11.332Z,95.90
2022-11-10T11:20:11.333Z,96.46
2022-11-10T11:21:11.303Z,97.69
2022-11-10T11:22:11.284Z,96.13
2022-11-10T11:23:11.281Z,92.50
2022-11-10T11:24:11.256Z,89.54
2022-11-10T11:25:11.250Z,90.42
2022-11-10T11:26:11.228Z,91.66
2022-11-10T11:27:11.221Z,82.92
2022-11-10T11:28:11.210Z,75.92
2022-11-10T11:29:11.204Z,84.11
2022-11-10T11:30:11.184Z,80.58
2022-11-10T11:31:11.171Z,70.83
2022-11-10T11:32:11.153Z,70.86
2022-11-10T11:33:11.149Z,69.35
2022-11-10T11:34:11.125Z,74.37
2022-11-10T11:35:11.110Z,73.43
2022-11-10T11:36:11.131Z,70.03
2022-11-10T11:37:13.141Z,76.42
2022-11-10T11:38:11.120Z,71.19
2022-11-10T11:39:11.060Z,68.70
2022-11-10T11:40:11.046Z,70.95
2022-11-10T11:41:11.035Z,65.80
2022-11-10T11:42:11.023Z,67.00
2022-11-10T11:43:11.001Z,59.56
2022-11-10T11:44:10.985Z,63.25
2022-11-10T11:45:10.976Z,61.39
2022-11-10T11:46:10.958Z,59.66
2022-11-10T11:47:10.952Z,54.91
2022-11-10T11:48:10.932Z,56.84
2022-11-10T11:49:10.922Z,61.32
2022-11-10T11:50:10.908Z,60.61
2022-11-10T11:51:10.906Z,62.98
2022-11-10T11:52:10.969Z,64.42
2022-11-10T11:53:10.885Z,70.66
2022-11-10T11:54:10.855Z,63.59
2022-11-10T11:55:10.858Z,66.36
2022-11-10T11:56:10.830Z,64.36
2022-11-10T11:57:10.819Z,63.93
2022-11-10T11:58:10.818Z,64.73
2022-11-10T11:59:10.796Z,63.86
2022-11-10T12:00:10.773Z,63.40
2022-11-10T12:01:10.764Z,63.96
2022-11-10T12:02:10.782Z,64.16
2022-11-10T12:03:10.741Z,65.46
2022-11-10T12:04:10.720Z,62.50
2022-11-10T12:05:10.711Z,64.06
2022-11-10T12:06:10.697Z,60.79
2022-11-10T12:07:10.767Z,64.03
2022-11-10T12:08:10.978Z,62.66
2022-11-10T12:09:10.665Z,60.79
2022-11-10T12:10:10.649Z,62.99
2022-11-10T12:11:10.633Z,67.16
2022-11-10T12:12:10.621Z,63.30
2022-11-10T12:13:10.603Z,56.07
2022-11-10T12:14:10.585Z,56.62
2022-11-10T12:15:10.582Z,60.01
2022-11-10T12:16:10.569Z,61.87
2022-11-10T12:17:10.555Z,66.72
2022-11-10T12:18:10.533Z,66.19
2022-11-10T12:19:10.533Z,65.89
2022-11-10T12:20:10.506Z,66.39
2022-11-10T12:21:10.504Z,65.16
2022-11-10T12:22:10.480Z,66.99
2022-11-10T12:23:10.478Z,61.19
2022-11-10T12:24:10.909Z,63.72
2022-11-10T12:25:10.447Z,62.85
2022-11-10T12:26:10.424Z,58.94
2022-11-10T12:27:10.418Z,65.38
2022-11-10T12:28:10.396Z,64.25
2022-11-10T12:29:10.387Z,65.52
2022-11-10T12:30:10.375Z,59.09
2022-11-10T12:31:10.367Z,62.03
2022-11-10T12:32:10.354Z,62.43
2022-11-10T12:33:10.339Z,62.84
2022-11-10T12:34:10.343Z,65.66
2022-11-10T12:35:10.311Z,64.52
2022-11-10T12:36:10.295Z,61.69
2022-11-10T12:37:10.286Z,60.59
2022-11-10T12:38:10.273Z,61.07
2022-11-10T12:39:10.254Z,59.74
2022-11-10T12:40:10.256Z,66.70
2022-11-10T12:41:10.229Z,57.71
2022-11-10T12:42:10.211Z,57.14
2022-11-10T12:43:10.204Z,55.12
2022-11-10T12:44:10.187Z,56.20
2022-11-10T12:45:10.179Z,62.58
2022-11-10T12:46:10.986Z,57.43
2022-11-10T12:47:10.144Z,59.00
2022-11-10T12:48:10.129Z,62.98
2022-11-10T12:49:10.120Z,68.23
2022-11-10T12:50:10.289Z,60.69
2022-11-10T12:51:10.088Z,62.06
2022-11-10T12:52:10.074Z,61.60